sensor_id;sensor_type;location;lat;lon;timestamp;P1;durP1;ratioP1;P2;durP2;ratioP2
63882;SDS011;50047;50.596;30.466;2023-05-20T00:02:14;5.20;;;3.50;;
63882;SDS011;50047;50.596;30.466;2023-05-20T00:04:42;5.00;;;2.60;;
63882;SDS011;50047;50.596;30.466;2023-05-20T00:07:10;6.10;;;2.80;;
63882;SDS011;50047;50.596;30.466;2023-05-20T00:09:38;5.20;;;3.30;;
63882;SDS011;50047;50.596;30.466;2023-05-20T00:12:06;4.60;;;3.10;;
63882;SDS011;50047;50.596;30.466;2023-05-20T00:14:34;4.20;;;2.90;;
63882;SDS011;50047;50.596;30.466;2023-05-20T00:17:01;7.10;;;3.60;;
63882;SDS011;50047;50.596;30.466;2023-05-20T00:19:29;4.20;;;3.40;;
63882;SDS011;50047;50.596;30.466;2023-05-20T00:21:57;11.40;;;3.80;;
63882;SDS011;50047;50.596;30.466;2023-05-20T00:24:24;3.90;;;2.50;;
63882;SDS011;50047;50.596;30.466;2023-05-20T00:26:52;4.10;;;2.80;;
63882;SDS011;50047;50.596;30.466;2023-05-20T00:29:20;4.60;;;3.20;;
63882;SDS011;50047;50.596;30.466;2023-05-20T00:31:47;4.10;;;3.00;;
63882;SDS011;50047;50.596;30.466;2023-05-20T00:34:15;4.50;;;3.50;;
63882;SDS011;50047;50.596;30.466;2023-05-20T00:36:44;6.40;;;3.80;;
63882;SDS011;50047;50.596;30.466;2023-05-20T00:39:11;6.20;;;3.50;;
63882;SDS011;50047;50.596;30.466;2023-05-20T00:41:39;5.50;;;3.40;;
63882;SDS011;50047;50.596;30.466;2023-05-20T00:44:07;5.00;;;3.00;;
63882;SDS011;50047;50.596;30.466;2023-05-20T00:46:34;4.80;;;3.00;;
63882;SDS011;50047;50.596;30.466;2023-05-20T00:49:02;5.20;;;3.50;;
63882;SDS011;50047;50.596;30.466;2023-05-20T00:51:30;5.20;;;3.20;;
63882;SDS011;50047;50.596;30.466;2023-05-20T00:53:57;7.60;;;3.60;;
63882;SDS011;50047;50.596;30.466;2023-05-20T00:56:25;5.90;;;3.70;;
63882;SDS011;50047;50.596;30.466;2023-05-20T00:58:52;6.10;;;3.70;;
63882;SDS011;50047;50.596;30.466;2023-05-20T01:01:19;3.80;;;2.20;;
63882;SDS011;50047;50.596;30.466;2023-05-20T01:03:48;6.40;;;2.60;;
63882;SDS011;50047;50.596;30.466;2023-05-20T01:06:16;5.10;;;3.30;;
63882;SDS011;50047;50.596;30.466;2023-05-20T01:08:43;3.70;;;2.90;;
63882;SDS011;50047;50.596;30.466;2023-05-20T01:11:33;4.90;;;3.50;;
63882;SDS011;50047;50.596;30.466;2023-05-20T01:14:05;6.40;;;3.30;;
63882;SDS011;50047;50.596;30.466;2023-05-20T01:16:34;8.90;;;3.70;;
63882;SDS011;50047;50.596;30.466;2023-05-20T01:19:02;8.80;;;3.50;;
63882;SDS011;50047;50.596;30.466;2023-05-20T01:21:40;2.90;;;2.20;;
63882;SDS011;50047;50.596;30.466;2023-05-20T01:24:09;3.60;;;2.50;;
63882;SDS011;50047;50.596;30.466;2023-05-20T01:26:37;9.90;;;3.40;;
63882;SDS011;50047;50.596;30.466;2023-05-20T01:29:04;8.40;;;2.90;;
63882;SDS011;50047;50.596;30.466;2023-05-20T01:31:32;3.70;;;2.80;;
63882;SDS011;50047;50.596;30.466;2023-05-20T01:34:05;6.10;;;3.30;;
63882;SDS011;50047;50.596;30.466;2023-05-20T01:36:33;4.30;;;3.40;;
63882;SDS011;50047;50.596;30.466;2023-05-20T01:39:00;4.40;;;3.20;;
63882;SDS011;50047;50.596;30.466;2023-05-20T01:41:30;3.10;;;2.00;;
63882;SDS011;50047;50.596;30.466;2023-05-20T01:44:00;4.50;;;2.70;;
63882;SDS011;50047;50.596;30.466;2023-05-20T01:46:31;5.10;;;3.00;;
63882;SDS011;50047;50.596;30.466;2023-05-20T01:51:27;5.80;;;3.40;;
63882;SDS011;50047;50.596;30.466;2023-05-20T01:53:55;5.00;;;2.90;;
63882;SDS011;50047;50.596;30.466;2023-05-20T01:56:22;4.10;;;2.90;;
63882;SDS011;50047;50.596;30.466;2023-05-20T01:58:51;5.60;;;3.40;;
63882;SDS011;50047;50.596;30.466;2023-05-20T02:01:18;3.70;;;2.20;;
63882;SDS011;50047;50.596;30.466;2023-05-20T02:03:46;3.70;;;2.40;;
63882;SDS011;50047;50.596;30.466;2023-05-20T02:06:13;3.50;;;2.80;;
63882;SDS011;50047;50.596;30.466;2023-05-20T02:08:41;4.80;;;2.60;;
63882;SDS011;50047;50.596;30.466;2023-05-20T02:11:08;4.00;;;2.70;;
63882;SDS011;50047;50.596;30.466;2023-05-20T02:13:36;3.20;;;2.50;;
63882;SDS011;50047;50.596;30.466;2023-05-20T02:16:04;4.80;;;3.00;;
63882;SDS011;50047;50.596;30.466;2023-05-20T02:18:32;3.70;;;2.90;;
63882;SDS011;50047;50.596;30.466;2023-05-20T02:21:04;3.70;;;1.90;;
63882;SDS011;50047;50.596;30.466;2023-05-20T02:23:32;4.30;;;2.40;;
63882;SDS011;50047;50.596;30.466;2023-05-20T02:26:00;4.20;;;3.00;;
63882;SDS011;50047;50.596;30.466;2023-05-20T02:28:27;5.20;;;2.80;;
63882;SDS011;50047;50.596;30.466;2023-05-20T02:30:55;7.90;;;3.10;;
63882;SDS011;50047;50.596;30.466;2023-05-20T02:33:22;4.80;;;2.60;;
63882;SDS011;50047;50.596;30.466;2023-05-20T02:35:49;4.40;;;2.80;;
63882;SDS011;50047;50.596;30.466;2023-05-20T02:38:17;3.30;;;2.60;;
63882;SDS011;50047;50.596;30.466;2023-05-20T02:40:44;5.70;;;2.80;;
63882;SDS011;50047;50.596;30.466;2023-05-20T02:43:11;5.00;;;2.60;;
63882;SDS011;50047;50.596;30.466;2023-05-20T02:45:39;2.80;;;2.00;;
63882;SDS011;50047;50.596;30.466;2023-05-20T02:48:07;3.00;;;2.20;;
63882;SDS011;50047;50.596;30.466;2023-05-20T02:50:37;3.00;;;2.30;;
63882;SDS011;50047;50.596;30.466;2023-05-20T02:53:06;5.10;;;2.60;;
63882;SDS011;50047;50.596;30.466;2023-05-20T02:55:35;5.10;;;3.00;;
63882;SDS011;50047;50.596;30.466;2023-05-20T02:58:02;4.40;;;2.90;;
63882;SDS011;50047;50.596;30.466;2023-05-20T03:00:31;4.10;;;2.50;;
63882;SDS011;50047;50.596;30.466;2023-05-20T03:03:01;3.50;;;2.80;;
63882;SDS011;50047;50.596;30.466;2023-05-20T03:05:28;4.80;;;2.70;;
63882;SDS011;50047;50.596;30.466;2023-05-20T03:07:56;3.20;;;2.60;;
63882;SDS011;50047;50.596;30.466;2023-05-20T03:10:23;6.10;;;2.60;;
63882;SDS011;50047;50.596;30.466;2023-05-20T03:12:50;6.90;;;3.00;;
63882;SDS011;50047;50.596;30.466;2023-05-20T03:15:18;6.20;;;3.10;;
63882;SDS011;50047;50.596;30.466;2023-05-20T03:17:45;3.10;;;2.70;;
63882;SDS011;50047;50.596;30.466;2023-05-20T03:20:12;4.40;;;2.90;;
63882;SDS011;50047;50.596;30.466;2023-05-20T03:22:41;3.70;;;3.10;;
63882;SDS011;50047;50.596;30.466;2023-05-20T03:25:08;3.70;;;2.80;;
63882;SDS011;50047;50.596;30.466;2023-05-20T03:27:35;3.50;;;2.80;;
63882;SDS011;50047;50.596;30.466;2023-05-20T03:30:05;4.80;;;3.20;;
63882;SDS011;50047;50.596;30.466;2023-05-20T03:32:33;5.70;;;3.00;;
63882;SDS011;50047;50.596;30.466;2023-05-20T03:35:01;5.30;;;3.00;;
63882;SDS011;50047;50.596;30.466;2023-05-20T03:37:29;3.60;;;2.90;;
63882;SDS011;50047;50.596;30.466;2023-05-20T03:39:57;5.80;;;3.30;;
63882;SDS011;50047;50.596;30.466;2023-05-20T03:42:24;3.80;;;2.90;;
63882;SDS011;50047;50.596;30.466;2023-05-20T03:44:52;5.00;;;3.40;;
63882;SDS011;50047;50.596;30.466;2023-05-20T03:47:19;5.00;;;3.00;;
63882;SDS011;50047;50.596;30.466;2023-05-20T03:49:46;7.40;;;3.40;;
63882;SDS011;50047;50.596;30.466;2023-05-20T03:52:13;4.00;;;3.00;;
63882;SDS011;50047;50.596;30.466;2023-05-20T03:54:41;5.30;;;3.50;;
63882;SDS011;50047;50.596;30.466;2023-05-20T03:57:08;4.30;;;2.90;;
63882;SDS011;50047;50.596;30.466;2023-05-20T03:59:36;3.70;;;3.30;;
63882;SDS011;50047;50.596;30.466;2023-05-20T04:02:04;3.20;;;2.70;;
63882;SDS011;50047;50.596;30.466;2023-05-20T04:04:32;4.10;;;3.10;;
63882;SDS011;50047;50.596;30.466;2023-05-20T04:06:59;6.40;;;3.20;;
63882;SDS011;50047;50.596;30.466;2023-05-20T04:09:26;4.20;;;2.90;;
63882;SDS011;50047;50.596;30.466;2023-05-20T04:11:54;5.70;;;3.20;;
63882;SDS011;50047;50.596;30.466;2023-05-20T04:14:21;8.50;;;3.20;;
63882;SDS011;50047;50.596;30.466;2023-05-20T04:16:49;3.90;;;3.00;;
63882;SDS011;50047;50.596;30.466;2023-05-20T04:19:17;8.00;;;3.00;;
63882;SDS011;50047;50.596;30.466;2023-05-20T04:21:45;4.90;;;3.30;;
63882;SDS011;50047;50.596;30.466;2023-05-20T04:24:13;7.40;;;3.20;;
63882;SDS011;50047;50.596;30.466;2023-05-20T04:26:40;5.90;;;3.40;;
63882;SDS011;50047;50.596;30.466;2023-05-20T04:29:08;3.30;;;2.90;;
63882;SDS011;50047;50.596;30.466;2023-05-20T04:31:35;4.40;;;2.70;;
63882;SDS011;50047;50.596;30.466;2023-05-20T04:34:04;3.80;;;3.10;;
63882;SDS011;50047;50.596;30.466;2023-05-20T04:36:31;5.40;;;3.20;;
63882;SDS011;50047;50.596;30.466;2023-05-20T04:39:01;5.20;;;3.00;;
63882;SDS011;50047;50.596;30.466;2023-05-20T04:41:29;6.20;;;2.90;;
63882;SDS011;50047;50.596;30.466;2023-05-20T04:43:57;5.10;;;3.20;;
63882;SDS011;50047;50.596;30.466;2023-05-20T04:46:27;3.00;;;2.60;;
63882;SDS011;50047;50.596;30.466;2023-05-20T04:48:57;6.20;;;2.60;;
63882;SDS011;50047;50.596;30.466;2023-05-20T04:51:24;3.10;;;2.40;;
63882;SDS011;50047;50.596;30.466;2023-05-20T04:53:51;12.30;;;2.90;;
63882;SDS011;50047;50.596;30.466;2023-05-20T04:56:18;3.30;;;2.40;;
63882;SDS011;50047;50.596;30.466;2023-05-20T04:58:47;5.10;;;3.00;;
63882;SDS011;50047;50.596;30.466;2023-05-20T05:01:14;3.90;;;2.40;;
63882;SDS011;50047;50.596;30.466;2023-05-20T05:03:42;3.90;;;2.50;;
63882;SDS011;50047;50.596;30.466;2023-05-20T05:06:09;6.30;;;2.80;;
63882;SDS011;50047;50.596;30.466;2023-05-20T05:08:38;4.80;;;2.50;;
63882;SDS011;50047;50.596;30.466;2023-05-20T05:11:05;7.90;;;3.20;;
63882;SDS011;50047;50.596;30.466;2023-05-20T05:13:33;3.60;;;2.40;;
63882;SDS011;50047;50.596;30.466;2023-05-20T05:16:00;3.40;;;2.60;;
63882;SDS011;50047;50.596;30.466;2023-05-20T05:18:29;4.00;;;2.60;;
63882;SDS011;50047;50.596;30.466;2023-05-20T05:21:06;5.80;;;2.60;;
63882;SDS011;50047;50.596;30.466;2023-05-20T05:23:35;4.30;;;2.60;;
63882;SDS011;50047;50.596;30.466;2023-05-20T05:26:02;5.30;;;2.60;;
63882;SDS011;50047;50.596;30.466;2023-05-20T05:28:30;4.40;;;2.50;;
63882;SDS011;50047;50.596;30.466;2023-05-20T05:30:58;3.00;;;2.20;;
63882;SDS011;50047;50.596;30.466;2023-05-20T05:33:25;3.00;;;2.50;;
63882;SDS011;50047;50.596;30.466;2023-05-20T05:35:54;5.10;;;2.60;;
63882;SDS011;50047;50.596;30.466;2023-05-20T05:38:24;4.20;;;2.60;;
63882;SDS011;50047;50.596;30.466;2023-05-20T05:40:52;2.80;;;2.20;;
63882;SDS011;50047;50.596;30.466;2023-05-20T05:43:20;5.70;;;2.70;;
63882;SDS011;50047;50.596;30.466;2023-05-20T05:45:48;5.10;;;2.60;;
63882;SDS011;50047;50.596;30.466;2023-05-20T05:48:15;3.00;;;2.50;;
63882;SDS011;50047;50.596;30.466;2023-05-20T05:50:43;3.90;;;2.50;;
63882;SDS011;50047;50.596;30.466;2023-05-20T05:53:12;5.50;;;2.70;;
63882;SDS011;50047;50.596;30.466;2023-05-20T05:55:41;2.70;;;2.00;;
63882;SDS011;50047;50.596;30.466;2023-05-20T05:58:08;3.70;;;2.30;;
63882;SDS011;50047;50.596;30.466;2023-05-20T06:00:36;4.20;;;2.40;;
63882;SDS011;50047;50.596;30.466;2023-05-20T06:03:04;6.20;;;2.50;;
63882;SDS011;50047;50.596;30.466;2023-05-20T06:05:32;4.20;;;2.40;;
63882;SDS011;50047;50.596;30.466;2023-05-20T06:08:00;2.80;;;2.40;;
63882;SDS011;50047;50.596;30.466;2023-05-20T06:10:28;6.50;;;2.40;;
63882;SDS011;50047;50.596;30.466;2023-05-20T06:12:56;4.40;;;3.20;;
63882;SDS011;50047;50.596;30.466;2023-05-20T06:15:24;5.10;;;2.60;;
63882;SDS011;50047;50.596;30.466;2023-05-20T06:17:51;2.70;;;2.30;;
63882;SDS011;50047;50.596;30.466;2023-05-20T06:20:19;4.60;;;2.30;;
63882;SDS011;50047;50.596;30.466;2023-05-20T06:22:47;4.60;;;2.50;;
63882;SDS011;50047;50.596;30.466;2023-05-20T06:25:14;4.70;;;2.40;;
63882;SDS011;50047;50.596;30.466;2023-05-20T06:27:42;5.50;;;2.30;;
63882;SDS011;50047;50.596;30.466;2023-05-20T06:30:12;5.00;;;2.40;;
63882;SDS011;50047;50.596;30.466;2023-05-20T06:32:40;6.80;;;2.40;;
63882;SDS011;50047;50.596;30.466;2023-05-20T06:35:08;5.10;;;2.20;;
63882;SDS011;50047;50.596;30.466;2023-05-20T06:37:36;4.40;;;2.40;;
63882;SDS011;50047;50.596;30.466;2023-05-20T06:40:04;6.00;;;2.70;;
63882;SDS011;50047;50.596;30.466;2023-05-20T06:42:32;4.10;;;2.60;;
63882;SDS011;50047;50.596;30.466;2023-05-20T06:45:03;4.80;;;2.50;;
63882;SDS011;50047;50.596;30.466;2023-05-20T06:47:43;5.90;;;2.70;;
63882;SDS011;50047;50.596;30.466;2023-05-20T06:50:11;6.60;;;2.60;;
63882;SDS011;50047;50.596;30.466;2023-05-20T06:52:39;4.30;;;2.50;;
63882;SDS011;50047;50.596;30.466;2023-05-20T06:55:06;5.40;;;2.40;;
63882;SDS011;50047;50.596;30.466;2023-05-20T06:57:36;3.90;;;2.30;;
63882;SDS011;50047;50.596;30.466;2023-05-20T07:00:03;4.40;;;2.30;;
63882;SDS011;50047;50.596;30.466;2023-05-20T07:02:34;5.20;;;2.10;;
63882;SDS011;50047;50.596;30.466;2023-05-20T07:05:02;2.80;;;2.00;;
63882;SDS011;50047;50.596;30.466;2023-05-20T07:07:29;5.20;;;2.30;;
63882;SDS011;50047;50.596;30.466;2023-05-20T07:09:57;4.70;;;2.30;;
63882;SDS011;50047;50.596;30.466;2023-05-20T07:12:25;5.10;;;2.60;;
63882;SDS011;50047;50.596;30.466;2023-05-20T07:14:52;3.40;;;2.20;;
63882;SDS011;50047;50.596;30.466;2023-05-20T07:17:20;3.50;;;2.30;;
63882;SDS011;50047;50.596;30.466;2023-05-20T07:19:48;8.10;;;2.50;;
63882;SDS011;50047;50.596;30.466;2023-05-20T07:22:15;6.40;;;2.30;;
63882;SDS011;50047;50.596;30.466;2023-05-20T07:25:05;4.10;;;2.30;;
63882;SDS011;50047;50.596;30.466;2023-05-20T07:27:35;4.60;;;2.40;;
63882;SDS011;50047;50.596;30.466;2023-05-20T07:30:02;4.00;;;1.90;;
63882;SDS011;50047;50.596;30.466;2023-05-20T07:32:31;5.30;;;2.30;;
63882;SDS011;50047;50.596;30.466;2023-05-20T07:34:59;6.10;;;2.00;;
63882;SDS011;50047;50.596;30.466;2023-05-20T07:37:27;10.40;;;2.10;;
63882;SDS011;50047;50.596;30.466;2023-05-20T07:39:55;6.10;;;2.20;;
63882;SDS011;50047;50.596;30.466;2023-05-20T07:42:22;6.90;;;1.90;;
63882;SDS011;50047;50.596;30.466;2023-05-20T07:44:53;3.80;;;2.00;;
63882;SDS011;50047;50.596;30.466;2023-05-20T07:47:21;3.80;;;2.00;;
63882;SDS011;50047;50.596;30.466;2023-05-20T07:49:48;5.40;;;1.90;;
63882;SDS011;50047;50.596;30.466;2023-05-20T07:52:16;4.00;;;1.90;;
63882;SDS011;50047;50.596;30.466;2023-05-20T07:54:44;6.20;;;2.40;;
63882;SDS011;50047;50.596;30.466;2023-05-20T07:57:11;3.90;;;1.70;;
63882;SDS011;50047;50.596;30.466;2023-05-20T07:59:40;12.10;;;2.80;;
63882;SDS011;50047;50.596;30.466;2023-05-20T08:02:07;2.20;;;1.90;;
63882;SDS011;50047;50.596;30.466;2023-05-20T08:04:35;4.40;;;2.30;;
63882;SDS011;50047;50.596;30.466;2023-05-20T08:07:02;7.10;;;2.60;;
63882;SDS011;50047;50.596;30.466;2023-05-20T08:09:39;3.00;;;1.60;;
63882;SDS011;50047;50.596;30.466;2023-05-20T08:12:07;3.70;;;1.70;;
63882;SDS011;50047;50.596;30.466;2023-05-20T08:14:34;6.60;;;1.90;;
63882;SDS011;50047;50.596;30.466;2023-05-20T08:17:02;4.70;;;1.90;;
63882;SDS011;50047;50.596;30.466;2023-05-20T08:19:30;2.70;;;1.40;;
63882;SDS011;50047;50.596;30.466;2023-05-20T08:21:58;5.70;;;1.80;;
63882;SDS011;50047;50.596;30.466;2023-05-20T08:24:26;8.60;;;1.90;;
63882;SDS011;50047;50.596;30.466;2023-05-20T08:26:54;2.10;;;1.50;;
63882;SDS011;50047;50.596;30.466;2023-05-20T08:29:23;2.70;;;1.70;;
63882;SDS011;50047;50.596;30.466;2023-05-20T08:31:51;3.80;;;1.90;;
63882;SDS011;50047;50.596;30.466;2023-05-20T08:34:18;3.90;;;1.50;;
63882;SDS011;50047;50.596;30.466;2023-05-20T08:36:45;2.80;;;1.50;;
63882;SDS011;50047;50.596;30.466;2023-05-20T08:39:13;2.30;;;1.60;;
63882;SDS011;50047;50.596;30.466;2023-05-20T08:41:41;2.70;;;1.60;;
63882;SDS011;50047;50.596;30.466;2023-05-20T08:44:08;6.40;;;2.40;;
63882;SDS011;50047;50.596;30.466;2023-05-20T08:46:39;3.60;;;1.60;;
63882;SDS011;50047;50.596;30.466;2023-05-20T08:49:07;3.90;;;1.80;;
